Green Ice — C6SO4 — position and weather

sailwx.info

Track history (hours):
 
Tides and Currents Weather Stations Pressure Air Temp Water Temp Dewpoint Dewpoint Depression Visibility Wind Speed Wind Dir Waves Ship Positions

Green Ice

Last reported at 2014-Aug-01 01:13 UTC. Time now 2014-Aug-01 01:42 UTC.
Position N 66°17' E 012°55'.

Length 86 m; draft 6.2 m.

Type: Cargo ship. MMSI: 311411000.

Date/timePositionNaut miles runAvg speedWind from/ knotsBaromVisibWave heightAir tempDewpointWater temp
2014-Aug-01 01:13N 66°17' E 012°55'911.9
2014-Aug-01 00:30N 66°25' E 012°59'1110.1
2014-Jul-31 23:27N 66°36' E 013°04'2111.2
2014-Jul-31 21:34N 66°55' E 013°28'1110.6
2014-Jul-31 20:32N 67°02' E 013°48'1211.9
2014-Jul-31 19:33N 67°12' E 014°06'9 9.1
2014-Jul-31 18:34N 67°17' E 014°24'0 0.0
2014-Jul-31 17:34N 67°17' E 014°24'6 5.6
2014-Jul-31 16:33N 67°23' E 014°25'1212.3
2014-Jul-31 15:34N 67°35' E 014°19'254 5.6
2014-Jul-29 18:20N 70°30' E 022°53'  
2014-Jul-26 19:07N 70°40' E 023°32'3 1.5
2014-Jul-26 17:05N 70°40' E 023°41'2 2.0
2014-Jul-26 16:10N 70°38' E 023°40'251 6.0
2014-Jul-24 22:03N 67°56' E 014°37'612.1
2014-Jul-24 21:33N 67°52' E 014°26'1212.0
2014-Jul-24 20:32N 67°40' E 014°15'1313.5
2014-Jul-24 19:33N 67°28' E 014°24'1010.0
2014-Jul-24 18:33N 67°17' E 014°24'34 6.8
2014-Jul-24 13:33N 66°53' E 013°23'2512.6
2014-Jul-24 11:33N 66°30' E 012°59'1313.4
2014-Jul-24 10:33N 66°16' E 012°55'1413.3
2014-Jul-24 09:32N 66°04' E 012°39'3 1.4
2014-Jul-24 07:19N 66°01' E 012°36'56 9.5
2014-Jul-24 01:29N 65°09' E 011°50'1213.0
2014-Jul-24 00:33N 64°59' E 011°35'1111.5
2014-Jul-23 23:33N 64°52' E 011°14'1 1.1
2014-Jul-23 22:33N 64°51' E 011°13'8810.6
2014-Jul-23 14:18N 63°30' E 009°55'912.8
2014-Jul-23 13:33N 63°28' E 010°16'4 4.0
2014-Jul-23 12:31N 63°27' E 010°25'0 0.0
2014-Jul-23 11:31N 63°27' E 010°25'0 0.0
2014-Jul-23 10:31N 63°27' E 010°25'0 0.0
2014-Jul-23 09:31N 63°27' E 010°25'0 0.0
2014-Jul-23 08:31N 63°27' E 010°25'4 4.0
2014-Jul-23 07:33N 63°28' E 010°17'231 7.7
2014-Jul-22 01:23N 60°32' E 004°57'  
Track history (hours):
 
Tides and Currents Weather Stations Pressure Air Temp Water Temp Dewpoint Dewpoint Depression Visibility Wind Speed Wind Dir Waves Ship Positions

Green Ice

Last reported at 2014-Aug-01 01:13 UTC. Time now 2014-Aug-01 01:42 UTC.
Position N 66°17' E 012°55'.

Length 86 m; draft 6.2 m.

Type: Cargo ship. MMSI: 311411000.

Date/timePositionNaut miles runAvg speedWind from/ knotsBaromVisibWave heightAir tempDewpointWater temp
2014-Aug-01 01:13N 66°17' E 012°55'911.9
2014-Aug-01 00:30N 66°25' E 012°59'1110.1
2014-Jul-31 23:27N 66°36' E 013°04'2111.2
2014-Jul-31 21:34N 66°55' E 013°28'1110.6
2014-Jul-31 20:32N 67°02' E 013°48'1211.9
2014-Jul-31 19:33N 67°12' E 014°06'9 9.1
2014-Jul-31 18:34N 67°17' E 014°24'0 0.0
2014-Jul-31 17:34N 67°17' E 014°24'6 5.6
2014-Jul-31 16:33N 67°23' E 014°25'1212.3
2014-Jul-31 15:34N 67°35' E 014°19'254 5.6
2014-Jul-29 18:20N 70°30' E 022°53'  
2014-Jul-26 19:07N 70°40' E 023°32'3 1.5
2014-Jul-26 17:05N 70°40' E 023°41'2 2.0
2014-Jul-26 16:10N 70°38' E 023°40'251 6.0
2014-Jul-24 22:03N 67°56' E 014°37'612.1
2014-Jul-24 21:33N 67°52' E 014°26'1212.0
2014-Jul-24 20:32N 67°40' E 014°15'1313.5
2014-Jul-24 19:33N 67°28' E 014°24'1010.0
2014-Jul-24 18:33N 67°17' E 014°24'34 6.8
2014-Jul-24 13:33N 66°53' E 013°23'2512.6
2014-Jul-24 11:33N 66°30' E 012°59'1313.4
2014-Jul-24 10:33N 66°16' E 012°55'1413.3
2014-Jul-24 09:32N 66°04' E 012°39'3 1.4
2014-Jul-24 07:19N 66°01' E 012°36'56 9.5
2014-Jul-24 01:29N 65°09' E 011°50'1213.0
2014-Jul-24 00:33N 64°59' E 011°35'1111.5
2014-Jul-23 23:33N 64°52' E 011°14'1 1.1
2014-Jul-23 22:33N 64°51' E 011°13'8810.6
2014-Jul-23 14:18N 63°30' E 009°55'912.8
2014-Jul-23 13:33N 63°28' E 010°16'4 4.0
2014-Jul-23 12:31N 63°27' E 010°25'0 0.0
2014-Jul-23 11:31N 63°27' E 010°25'0 0.0
2014-Jul-23 10:31N 63°27' E 010°25'0 0.0
2014-Jul-23 09:31N 63°27' E 010°25'0 0.0
2014-Jul-23 08:31N 63°27' E 010°25'4 4.0
2014-Jul-23 07:33N 63°28' E 010°17'231 7.7
2014-Jul-22 01:23N 60°32' E 004°57'  

Dump ship's entire track history